Time;durP1;ratioP1;P1;durP2;ratioP2;P2;SDS_P1;SDS_P2;PMS_P1;PMS_P2;Temp;Humidity;BMP_temperature;BMP_pressure;BME280_temperature;BME280_humidity;BME280_pressure;Samples;Min_cycle;Max_cycle;Signal;HPM_P1;HPM_P2
2021/11/17 02:28:25;;;;;;;12.37;8.70;;;;;;;7.87;52.85;102850.33;1577792;91;21554;-54
2021/11/17 02:31:17;;;;;;;13.15;9.00;;;;;;;7.83;52.92;102845.91;1583639;89;21113;-56
2021/11/17 02:33:56;;;;;;;12.95;8.15;;;;;;;7.80;53.12;102835.91;1562387;91;21073;-53
2021/11/17 02:36:59;;;;;;;14.00;8.58;;;;;;;7.72;53.37;102830.56;1555975;91;21073;-56
2021/11/17 02:39:49;;;;;;;16.32;9.05;;;;;;;7.69;53.66;102827.89;1563221;88;21089;-56
2021/11/17 02:42:55;;;;;;;12.58;8.30;;;;;;;7.70;54.02;102830.95;1612346;87;21114;-54
2021/11/17 02:45:56;;;;;;;10.40;7.60;;;;;;;7.70;54.33;102838.72;1587692;90;21146;-55
2021/11/17 02:48:37;;;;;;;11.03;7.97;;;;;;;7.72;54.41;102831.86;1569105;91;21592;-57
2021/11/17 02:51:36;;;;;;;14.13;8.80;;;;;;;7.75;54.49;102824.14;1516030;93;21098;-57
2021/11/17 02:54:24;;;;;;;10.35;7.87;;;;;;;7.78;54.59;102828.52;1487220;95;21077;-58
2021/11/17 02:57:08;;;;;;;14.15;8.33;;;;;;;7.81;54.90;102830.75;1516201;93;21151;-56
2021/11/17 03:00:07;;;;;;;10.10;7.60;;;;;;;7.82;54.83;102826.04;1468202;96;21183;-54
2021/11/17 03:03:16;;;;;;;10.68;8.03;;;;;;;7.82;54.74;102818.27;1455490;96;21124;-56
2021/11/17 03:06:07;;;;;;;13.08;8.65;;;;;;;7.77;54.72;102811.23;1437990;99;21147;-56
2021/11/17 03:09:14;;;;;;;11.97;8.75;;;;;;;7.68;54.60;102795.06;1437810;99;21137;-54
2021/11/17 03:11:58;;;;;;;12.20;9.70;;;;;;;7.61;54.40;102800.93;1460167;97;21100;-56
2021/11/17 03:14:49;;;;;;;10.93;8.48;;;;;;;7.50;54.54;102797.20;1467731;96;21152;-54
2021/11/17 03:17:38;;;;;;;15.13;9.53;;;;;;;7.43;54.56;102808.70;1468921;96;21125;-54
2021/11/17 03:20:35;;;;;;;14.10;8.83;;;;;;;7.35;54.35;102805.52;1468165;96;21124;-54
2021/11/17 03:23:27;;;;;;;11.80;8.53;;;;;;;7.28;54.77;102796.25;1467901;96;21069;-54
2021/11/17 03:26:29;;;;;;;13.35;8.78;;;;;;;7.26;54.97;102795.34;1467541;96;21226;-54
2021/11/17 03:29:29;;;;;;;13.28;8.70;;;;;;;7.25;55.13;102787.13;1499862;94;22268;-54
2021/11/17 03:32:24;;;;;;;13.20;8.88;;;;;;;7.24;55.14;102791.84;1480861;95;21124;-57
2021/11/17 03:35:21;;;;;;;10.23;7.97;;;;;;;7.21;55.28;102793.08;1503177;95;21628;-57
2021/11/17 03:38:02;;;;;;;13.05;8.68;;;;;;;7.21;55.40;102793.08;1551617;88;21556;-58
2021/11/17 03:41:01;;;;;;;11.10;8.53;;;;;;;7.21;55.58;102793.08;1622368;87;21522;-56
2021/11/17 03:43:54;;;;;;;13.18;8.03;;;;;;;7.20;55.64;102797.78;1679099;83;21015;-57
2021/11/17 03:47:10;;;;;;;14.13;8.75;;;;;;;7.22;54.91;102793.52;1677055;84;21082;-54
2021/11/17 03:50:01;;;;;;;10.82;8.40;;;;;;;7.17;54.38;102792.55;1674247;84;21589;-57
2021/11/17 03:52:54;;;;;;;11.63;8.33;;;;;;;7.11;54.33;102789.81;1669641;83;21543;-57
2021/11/17 03:56:03;;;;;;;11.85;8.40;;;;;;;7.05;54.47;102787.05;1654673;85;22311;-53
2021/11/17 03:58:56;;;;;;;14.60;8.03;;;;;;;7.02;54.79;102777.92;1660461;85;21547;-53
2021/11/17 04:02:02;;;;;;;12.23;8.73;;;;;;;7.00;54.89;102779.59;1659260;86;21553;-57
2021/11/17 04:04:43;;;;;;;13.03;8.70;;;;;;;6.96;54.90;102785.54;1656692;86;21514;-54
2021/11/17 04:07:33;;;;;;;13.50;8.60;;;;;;;6.92;54.71;102786.30;1658719;86;21038;-54
2021/11/17 04:10:49;;;;;;;12.47;9.00;;;;;;;6.89;54.74;102793.97;1658749;85;21111;-56
2021/11/17 04:13:27;;;;;;;11.28;8.15;;;;;;;6.88;54.99;102790.94;1645633;86;21037;-54
2021/11/17 04:15:59;;;;;;;12.43;7.60;;;;;;;6.91;55.21;102780.65;1643235;86;21573;-56
2021/11/17 04:18:48;;;;;;;13.18;8.03;;;;;;;6.94;55.21;102775.56;1616409;88;21049;-53
2021/11/17 04:21:50;;;;;;;10.25;8.50;;;;;;;6.93;55.10;102790.21;1545192;92;21648;-57
2021/11/17 04:24:31;;;;;;;12.73;8.30;;;;;;;6.93;55.04;102788.92;1517121;94;21026;-57
2021/11/17 04:27:09;;;;;;;12.82;8.40;;;;;;;6.93;55.20;102781.56;1495812;96;21190;-57
2021/11/17 04:29:58;;;;;;;14.20;8.50;;;;;;;6.91;55.57;102784.53;1495611;96;21102;-54
2021/11/17 04:32:41;;;;;;;12.10;9.35;;;;;;;6.91;55.84;102775.48;1516584;94;21053;-58
2021/11/17 04:35:47;;;;;;;11.05;7.62;;;;;;;6.94;55.99;102775.56;1530592;93;21163;-57
2021/11/17 04:38:46;;;;;;;11.53;8.45;;;;;;;6.94;56.31;102776.45;1534526;93;21053;-56
2021/11/17 04:41:42;;;;;;;11.93;8.55;;;;;;;6.98;56.63;102772.22;1519704;93;21576;-56
2021/11/17 04:44:32;;;;;;;11.08;8.70;;;;;;;7.05;56.88;102780.57;1497843;95;21128;-56
2021/11/17 04:47:48;;;;;;;12.75;8.93;;;;;;;7.10;56.88;102771.22;1500346;95;21564;-57
2021/11/17 04:50:48;;;;;;;14.18;9.10;;;;;;;7.15;56.97;102770.92;1492916;95;21103;-54
2021/11/17 04:53:38;;;;;;;10.20;8.00;;;;;;;7.19;56.76;102771.01;1495637;96;21045;-57
2021/11/17 04:56:31;;;;;;;12.33;8.15;;;;;;;7.19;56.63;102775.34;1486060;96;21081;-57
2021/11/17 04:59:09;;;;;;;13.18;7.75;;;;;;;7.19;56.45;102780.52;1490585;95;21086;-57
2021/11/17 05:02:04;;;;;;;14.55;8.43;;;;;;;7.16;56.25;102779.13;1499906;95;21093;-58
2021/11/17 05:04:39;;;;;;;11.53;8.30;;;;;;;7.16;56.35;102776.55;1505036;95;21070;-55
2021/11/17 05:07:28;;;;;;;13.53;8.63;;;;;;;7.19;56.31;102775.34;1506420;95;21074;-61
2021/11/17 05:10:20;;;;;;;12.78;9.13;;;;;;;7.21;56.35;102778.84;1506399;95;21502;-54
2021/11/17 05:12:58;;;;;;;13.38;9.58;;;;;;;7.22;56.36;102776.69;1506894;95;21019;-55
2021/11/17 05:15:54;;;;;;;12.28;9.05;;;;;;;7.23;56.21;102782.34;1504798;95;21130;-55
2021/11/17 05:18:31;;;;;;;13.13;9.85;;;;;;;7.22;56.12;102768.51;1427556;99;21099;-59
2021/11/17 05:21:18;;;;;;;14.13;10.58;;;;;;;7.21;56.31;102769.77;1483399;91;21060;-55
2021/11/17 05:24:05;;;;;;;12.93;9.85;;;;;;;7.21;56.54;102769.77;1572075;91;21104;-58
2021/11/17 05:26:57;;;;;;;11.70;9.50;;;;;;;7.21;56.77;102765.89;1576870;91;21100;-61
2021/11/17 05:29:50;;;;;;;15.58;11.15;;;;;;;7.22;56.81;102774.09;1567305;90;21128;-58
2021/11/17 05:32:31;;;;;;;15.90;11.08;;;;;;;7.21;56.94;102769.77;1604108;87;21037;-58
2021/11/17 05:35:12;;;;;;;14.28;10.80;;;;;;;7.21;57.14;102776.25;1623897;86;21050;-56
2021/11/17 05:38:08;;;;;;;15.30;12.00;;;;;;;7.21;57.21;102773.66;1601783;89;21512;-58
2021/11/17 05:41:01;;;;;;;14.33;11.63;;;;;;;7.21;57.31;102768.48;1603038;89;21065;-59
2021/11/17 05:43:52;;;;;;;15.30;10.90;;;;;;;7.21;57.48;102775.80;1598341;89;21068;-59
2021/11/17 05:46:32;;;;;;;17.05;12.25;;;;;;;7.23;57.42;102777.16;1595970;89;21040;-59
2021/11/17 05:49:20;;;;;;;15.28;11.28;;;;;;;7.23;57.49;102771.53;1578965;90;21040;-57
2021/11/17 05:52:16;;;;;;;17.60;12.03;;;;;;;7.26;57.51;102771.63;1545224;93;21052;-59
2021/11/17 05:55:09;;;;;;;16.27;11.85;;;;;;;7.30;57.27;102768.68;1528789;94;21073;-56
2021/11/17 05:58:05;;;;;;;15.20;11.63;;;;;;;7.35;57.33;102774.86;1534816;93;21089;-55
2021/11/17 06:00:57;;;;;;;15.15;9.98;;;;;;;7.37;57.34;102770.59;1545580;93;21088;-56
2021/11/17 06:03:44;;;;;;;16.70;10.98;;;;;;;7.39;57.32;102763.73;1573900;91;21104;-56
2021/11/17 06:06:10;;;;;;;15.20;11.30;;;;;;;7.39;57.15;102768.91;1535452;93;21087;-54
2021/11/17 06:08:36;;;;;;;14.93;10.93;;;;;;;7.41;57.23;102762.05;1533173;94;21534;-55
2021/11/17 06:11:03;;;;;;;14.87;11.75;;;;;;;7.42;57.16;102753.42;1545566;93;21056;-57
2021/11/17 06:13:29;;;;;;;15.35;11.00;;;;;;;7.43;57.16;102760.78;1610350;87;21098;-56
2021/11/17 06:15:56;;;;;;;12.80;9.93;;;;;;;7.43;57.17;102765.55;1610019;87;21117;-54
2021/11/17 06:18:26;;;;;;;14.18;10.50;;;;;;;7.46;57.06;102769.48;1605290;89;21073;-55
2021/11/17 06:20:52;;;;;;;11.85;10.38;;;;;;;7.44;57.17;102762.55;1678320;85;20983;-58
2021/11/17 06:23:30;;;;;;;14.07;10.70;;;;;;;7.41;57.08;102764.63;1678055;84;21086;-57
2021/11/17 06:25:56;;;;;;;12.35;10.53;;;;;;;7.40;57.02;102765.46;1629618;87;21555;-54
2021/11/17 06:28:27;;;;;;;12.85;10.98;;;;;;;7.39;56.94;102761.14;1635551;86;21103;-58
2021/11/17 06:30:56;;;;;;;12.90;10.20;;;;;;;7.36;56.88;102755.45;1644367;86;21538;-56
2021/11/17 06:33:22;;;;;;;13.55;10.55;;;;;;;7.32;57.02;102752.76;1641772;85;21065;-55
2021/11/17 06:35:48;;;;;;;13.48;10.70;;;;;;;7.28;57.10;102750.52;1646852;87;21509;-57
2021/11/17 06:38:17;;;;;;;12.47;10.50;;;;;;;7.26;57.09;102751.33;1641492;85;21038;-56
2021/11/17 06:40:44;;;;;;;11.20;9.83;;;;;;;7.25;57.08;102749.59;1641527;85;21039;-56
2021/11/17 06:43:10;;;;;;;12.13;9.55;;;;;;;7.23;57.19;102747.38;1642044;85;21015;-55
2021/11/17 06:45:45;;;;;;;12.37;9.43;;;;;;;7.25;57.25;102743.11;1641325;85;21093;-56
2021/11/17 06:48:12;;;;;;;14.80;10.18;;;;;;;7.26;57.20;102747.02;1641655;85;21030;-58
2021/11/17 06:50:42;;;;;;;12.68;9.53;;;;;;;7.26;57.32;102752.20;1641289;85;21783;-56
2021/11/17 06:53:09;;;;;;;13.53;10.60;;;;;;;7.28;57.57;102749.23;1578656;89;21046;-56
2021/11/17 06:55:37;;;;;;;18.02;10.58;;;;;;;7.34;57.59;102751.08;1595192;90;21047;-57
2021/11/17 06:58:03;;;;;;;12.90;9.48;;;;;;;7.39;57.46;102743.01;1594877;90;21101;-56
2021/11/17 07:00:32;;;;;;;12.43;8.20;;;;;;;7.44;57.37;102745.27;1594440;88;21145;-57
2021/11/17 07:02:59;;;;;;;11.68;8.75;;;;;;;7.49;57.19;102737.19;1612576;87;21510;-56
2021/11/17 07:05:26;;;;;;;11.95;9.10;;;;;;;7.52;56.83;102729.50;1642798;85;21050;-54
2021/11/17 07:07:54;;;;;;;20.85;13.38;;;;;;;7.59;56.71;102730.07;1640976;85;21078;-57
2021/11/17 07:10:24;;;;;;;26.40;18.30;;;;;;;7.63;56.42;102734.48;1641264;87;21078;-53
2021/11/17 07:12:51;;;;;;;28.27;17.80;;;;;;;7.69;56.31;102733.31;1642305;87;21611;-57
2021/11/17 07:15:18;;;;;;;27.70;17.05;;;;;;;7.74;56.29;102731.70;1642126;85;21151;-57
2021/11/17 07:17:44;;;;;;;26.00;15.50;;;;;;;7.79;56.45;102720.99;1640768;85;21018;-57
2021/11/17 07:20:11;;;;;;;19.92;13.10;;;;;;;7.87;56.54;102719.44;1639040;85;21030;-58
2021/11/17 07:22:38;;;;;;;22.07;13.50;;;;;;;7.94;56.42;102718.73;1654590;85;21038;-56
2021/11/17 07:25:06;;;;;;;17.20;13.22;;;;;;;8.02;56.23;102722.34;1665550;84;21015;-53
2021/11/17 07:27:33;;;;;;;33.58;22.95;;;;;;;8.08;56.02;102721.16;1663614;85;21134;-57
2021/11/17 07:29:59;;;;;;;35.43;31.48;;;;;;;8.14;55.89;102722.58;1653280;86;21052;-57
2021/11/17 07:32:27;;;;;;;23.90;19.70;;;;;;;8.17;55.71;102703.20;1736599;82;21050;-58
2021/11/17 07:34:53;;;;;;;15.48;12.00;;;;;;;8.23;55.63;102713.69;1722542;81;21522;-53
2021/11/17 07:37:20;;;;;;;17.60;15.48;;;;;;;8.30;55.50;102724.21;1733602;81;21109;-56
2021/11/17 07:39:46;;;;;;;36.75;31.95;;;;;;;8.37;55.26;102713.97;1733479;81;21007;-58
2021/11/17 07:42:15;;;;;;;24.77;22.15;;;;;;;8.43;55.04;102717.13;1734300;82;21066;-54
2021/11/17 07:44:43;;;;;;;18.30;14.80;;;;;;;8.45;54.65;102716.72;1735923;81;21019;-53
2021/11/17 07:47:10;;;;;;;22.30;16.07;;;;;;;8.46;54.64;102722.34;1727769;81;21015;-56
2021/11/17 07:49:37;;;;;;;28.65;20.90;;;;;;;8.47;54.55;102720.22;1731582;81;21007;-55
2021/11/17 07:52:05;;;;;;;21.20;18.07;;;;;;;8.49;54.59;102718.52;1733449;81;21036;-56
2021/11/17 07:54:32;;;;;;;15.75;13.22;;;;;;;8.52;54.35;102732.83;1735079;81;21026;-58
2021/11/17 07:57:00;;;;;;;19.48;14.93;;;;;;;8.55;54.22;102736.80;1735852;81;20967;-57
2021/11/17 07:59:27;;;;;;;20.68;14.78;;;;;;;8.59;54.15;102730.81;1735520;81;21011;-55
2021/11/17 08:01:56;;;;;;;18.35;15.85;;;;;;;8.64;54.18;102731.75;1731723;82;21558;-57
2021/11/17 08:04:23;;;;;;;19.73;15.40;;;;;;;8.71;54.11;102731.02;1729447;81;21010;-59
2021/11/17 08:06:51;;;;;;;25.10;17.92;;;;;;;8.77;53.96;102738.91;1723306;81;21062;-56
2021/11/17 08:09:19;;;;;;;22.17;16.17;;;;;;;8.83;53.94;102741.61;1733343;81;21479;-58
2021/11/17 08:11:47;;;;;;;21.52;16.60;;;;;;;8.90;53.61;102746.06;1731434;81;21030;-54
2021/11/17 08:14:13;;;;;;;25.32;18.35;;;;;;;8.68;54.16;102745.22;1730447;81;21074;-57
2021/11/17 08:16:42;;;;;;;19.52;14.20;;;;;;;8.69;54.27;102750.88;1733313;81;20979;-56
2021/11/17 08:19:08;;;;;;;20.05;15.05;;;;;;;8.70;54.21;102752.20;1732127;81;21031;-58
2021/11/17 08:21:35;;;;;;;19.85;14.45;;;;;;;8.73;53.99;102751.38;1735612;81;21074;-55
2021/11/17 08:24:02;;;;;;;21.82;13.93;;;;;;;8.74;54.08;102747.92;1735557;81;21046;-56
2021/11/17 08:26:30;;;;;;;16.77;12.90;;;;;;;8.77;53.93;102754.48;1730522;82;21007;-56
2021/11/17 08:28:57;;;;;;;29.23;19.60;;;;;;;8.79;53.93;102755.38;1721579;81;21117;-61
2021/11/17 08:31:24;;;;;;;20.20;14.03;;;;;;;8.80;53.68;102757.11;1735206;81;21526;-57
2021/11/17 08:33:52;;;;;;;22.05;14.43;;;;;;;8.80;53.85;102754.52;1737269;81;21484;-54
2021/11/17 08:36:18;;;;;;;24.65;14.07;;;;;;;8.81;53.97;102749.79;1733717;81;21539;-57
2021/11/17 08:38:45;;;;;;;16.57;11.43;;;;;;;8.83;54.01;102753.28;1731467;81;21003;-57
2021/11/17 08:41:12;;;;;;;16.12;11.28;;;;;;;8.85;53.83;102755.06;1731571;81;21070;-57
2021/11/17 08:43:41;;;;;;;18.20;10.88;;;;;;;8.87;53.80;102748.59;1730181;81;21518;-57
2021/11/17 08:46:07;;;;;;;18.52;11.18;;;;;;;8.93;53.80;102747.39;1730152;81;21034;-57
2021/11/17 08:48:35;;;;;;;13.75;9.48;;;;;;;8.97;53.76;102747.89;1731024;81;21081;-57
2021/11/17 08:51:03;;;;;;;14.90;10.70;;;;;;;8.97;53.56;102740.11;1695863;84;21057;-58
2021/11/17 08:53:32;;;;;;;13.22;9.30;;;;;;;8.96;53.53;102739.67;1744360;81;21491;-56
2021/11/17 08:56:01;;;;;;;10.65;9.50;;;;;;;8.95;53.57;102731.42;1735160;81;21538;-56
2021/11/17 08:58:28;;;;;;;13.90;9.73;;;;;;;8.96;53.65;102731.88;1734099;81;21039;-57
2021/11/17 09:00:54;;;;;;;12.82;9.80;;;;;;;8.97;53.51;102724.53;1721216;81;20983;-55
2021/11/17 09:03:21;;;;;;;12.37;9.05;;;;;;;9.03;53.55;102723.77;1732192;81;21099;-58
2021/11/17 09:05:56;;;;;;;14.30;9.33;;;;;;;9.07;53.47;102723.82;1737681;81;21539;-57
2021/11/17 09:08:25;;;;;;;11.10;9.18;;;;;;;9.10;53.57;102725.18;1690323;84;21102;-58
2021/11/17 09:10:56;;;;;;;11.20;8.20;;;;;;;9.15;53.51;102719.61;1732456;82;21026;-59
2021/11/17 09:13:24;;;;;;;10.25;7.83;;;;;;;9.19;53.41;102725.30;1733790;82;21010;-54
2021/11/17 09:15:53;;;;;;;11.35;8.30;;;;;;;9.22;53.50;102724.06;1717449;82;21539;-55
2021/11/17 09:18:22;;;;;;;10.88;8.25;;;;;;;9.25;53.51;102724.13;1726378;82;21034;-59
2021/11/17 09:20:49;;;;;;;11.85;8.20;;;;;;;9.30;53.53;102715.95;1728768;82;21022;-58
2021/11/17 09:23:16;;;;;;;13.20;8.70;;;;;;;9.40;53.38;102713.93;1740637;82;21014;-59
2021/11/17 09:25:43;;;;;;;13.88;9.43;;;;;;;9.45;52.94;102714.89;1733427;82;21034;-58
2021/11/17 09:28:10;;;;;;;11.57;8.08;;;;;;;9.46;53.11;102702.33;1729508;82;21150;-56
2021/11/17 09:30:38;;;;;;;11.97;8.33;;;;;;;9.49;53.16;102692.41;1723560;82;21038;-56
2021/11/17 09:33:09;;;;;;;9.65;8.00;;;;;;;9.54;53.09;102699.40;1723950;82;21086;-57
2021/11/17 09:35:36;;;;;;;12.93;8.05;;;;;;;9.58;53.07;102702.48;1724180;82;21030;-62
2021/11/17 09:38:04;;;;;;;11.90;8.78;;;;;;;9.63;52.94;102702.13;1726196;82;21042;-57
2021/11/17 09:40:39;;;;;;;12.37;7.78;;;;;;;9.67;52.78;102697.42;1726206;82;21065;-61
2021/11/17 09:43:08;;;;;;;13.43;8.43;;;;;;;9.72;52.68;102691.86;1626146;87;21107;-54
2021/11/17 09:45:36;;;;;;;11.08;8.00;;;;;;;9.72;52.42;102691.86;1602678;89;21529;-53
2021/11/17 09:48:03;;;;;;;9.53;7.67;;;;;;;9.73;52.03;102690.99;1628683;87;21545;-56
2021/11/17 09:50:38;;;;;;;14.10;7.97;;;;;;;9.69;52.08;102687.91;1628697;87;21069;-57
2021/11/17 09:53:15;;;;;;;11.40;9.08;;;;;;;9.68;52.21;102689.20;1628659;87;21538;-54
2021/11/17 09:55:53;;;;;;;11.78;8.10;;;;;;;9.65;52.51;102686.55;1637454;87;21093;-56
2021/11/17 09:58:31;;;;;;;12.15;7.95;;;;;;;9.66;52.64;102690.48;1578461;90;21127;-54
2021/11/17 10:01:08;;;;;;;10.68;8.30;;;;;;;9.68;52.29;102690.08;1584746;89;22625;-56
2021/11/17 10:04:01;;;;;;;12.20;8.78;;;;;;;9.66;52.32;102693.09;1573999;91;21054;-54
2021/11/17 10:06:53;;;;;;;13.13;8.33;;;;;;;9.65;52.35;102695.23;1574028;91;21074;-57
2021/11/17 10:09:51;;;;;;;10.58;8.38;;;;;;;9.67;52.34;102691.34;1522773;94;21098;-56
2021/11/17 10:12:49;;;;;;;10.80;7.45;;;;;;;9.68;52.29;102679.69;1477575;97;21087;-54
2021/11/17 10:14:49;;;;;;;12.80;8.65;;;;;;;9.72;52.41;102671.06;1527619;93;21645;-55
2021/11/17 10:17:34;;;;;;;10.95;7.85;;;;;;;9.75;52.38;102663.70;1499101;94;21163;-57
2021/11/17 10:20:27;;;;;;;9.83;7.62;;;;;;;9.81;52.46;102664.66;1496450;95;21115;-54
2021/11/17 10:23:18;;;;;;;10.53;7.78;;;;;;;9.92;52.17;102668.69;1496335;96;21180;-53
2021/11/17 10:26:05;;;;;;;8.53;6.83;;;;;;;9.99;51.91;102664.43;1496515;95;21167;-54
2021/11/17 10:28:43;;;;;;;11.63;7.70;;;;;;;10.03;51.80;102654.50;1491915;95;21153;-56
2021/11/17 10:31:20;;;;;;;10.93;8.18;;;;;;;10.07;51.70;102647.17;1477449;95;21206;-57
2021/11/17 10:34:02;;;;;;;10.88;8.40;;;;;;;10.12;51.58;102648.14;1482085;95;21159;-55
2021/11/17 10:36:52;;;;;;;10.60;7.80;;;;;;;10.16;51.41;102642.11;1480392;96;21984;-56
2021/11/17 10:39:45;;;;;;;8.85;7.20;;;;;;;10.21;51.35;102645.61;1500621;93;21172;-57
2021/11/17 10:42:20;;;;;;;9.03;7.47;;;;;;;10.20;51.27;102643.88;1531309;94;21063;-55
2021/11/17 10:45:13;;;;;;;9.48;7.72;;;;;;;10.21;51.28;102644.31;1517749;94;21093;-55
2021/11/17 10:47:45;;;;;;;9.48;7.50;;;;;;;10.22;51.25;102642.17;1508508;94;21598;-58
2021/11/17 10:50:33;;;;;;;13.40;8.83;;;;;;;10.19;51.26;102640.82;1518182;94;21081;-57
2021/11/17 10:53:14;;;;;;;10.38;7.72;;;;;;;10.18;51.09;102640.40;1467649;98;21195;-56
2021/11/17 10:55:47;;;;;;;10.68;6.80;;;;;;;10.16;51.11;102635.16;1434076;98;21135;-56
2021/11/17 10:58:18;;;;;;;10.08;7.72;;;;;;;10.17;51.25;102632.13;1440314;99;21176;-55
2021/11/17 11:00:51;;;;;;;14.93;8.18;;;;;;;10.14;51.39;102631.66;1441093;99;21575;-56
2021/11/17 11:03:20;;;;;;;12.98;8.10;;;;;;;10.11;51.18;102635.55;1398311;102;21121;-55
2021/11/17 11:05:54;;;;;;;10.53;7.12;;;;;;;10.10;51.31;102636.81;1379216;102;21142;-53
2021/11/17 11:08:35;;;;;;;8.95;7.12;;;;;;;10.09;51.35;102628.55;1368876;103;21154;-53
2021/11/17 11:11:03;;;;;;;8.65;6.87;;;;;;;10.11;51.31;102629.05;1386300;103;21265;-55
2021/11/17 11:13:57;;;;;;;13.03;8.38;;;;;;;10.15;51.52;102629.94;1410933;99;21121;-55
2021/11/17 11:16:42;;;;;;;16.82;9.20;;;;;;;10.22;51.43;102635.20;1429151;100;21108;-55
2021/11/17 11:19:17;;;;;;;8.73;6.65;;;;;;;10.29;51.31;102628.34;1429494;99;21072;-56
2021/11/17 11:21:50;;;;;;;10.13;7.08;;;;;;;10.32;51.09;102625.78;1468495;93;21114;-54
2021/11/17 11:24:39;;;;;;;9.83;7.12;;;;;;;10.33;50.94;102614.50;1512787;94;21040;-54
2021/11/17 11:27:15;;;;;;;9.40;7.10;;;;;;;10.34;50.84;102617.14;1511301;94;21621;-56
2021/11/17 11:30:08;;;;;;;13.58;8.20;;;;;;;10.38;50.78;102615.42;1505742;95;21124;-57
2021/11/17 11:32:46;;;;;;;9.83;7.47;;;;;;;10.38;50.70;102612.82;1472129;97;21616;-53
2021/11/17 11:35:18;;;;;;;11.45;6.72;;;;;;;10.35;50.60;102607.58;1484354;97;21064;-53
2021/11/17 11:37:56;;;;;;;7.92;6.75;;;;;;;10.31;50.56;102611.02;1484278;97;21087;-55
2021/11/17 11:40:28;;;;;;;11.03;8.13;;;;;;;10.26;50.59;102610.12;1484189;97;21096;-56
2021/11/17 11:43:20;;;;;;;11.08;7.55;;;;;;;10.22;50.87;102605.75;1491152;95;21085;-56
2021/11/17 11:45:50;;;;;;;9.50;6.40;;;;;;;10.21;51.13;102607.47;1462235;98;21152;-55
2021/11/17 11:48:34;;;;;;;9.85;6.25;;;;;;;10.23;50.95;102607.47;1462167;98;21149;-56
2021/11/17 11:51:24;;;;;;;8.78;7.03;;;;;;;10.24;51.04;102610.53;1462163;97;21088;-53
2021/11/17 11:54:20;;;;;;;12.18;7.83;;;;;;;10.26;50.97;102612.72;1413780;101;21095;-56
2021/11/17 11:57:03;;;;;;;12.78;7.65;;;;;;;10.27;50.90;102617.05;1413562;101;21203;-59
2021/11/17 11:59:30;;;;;;;12.60;8.63;;;;;;;10.31;50.91;102609.29;1413014;101;21218;-55
2021/11/17 12:02:11;;;;;;;16.82;10.30;;;;;;;10.35;50.70;102611.05;1420600;101;21143;-55
2021/11/17 12:04:46;;;;;;;24.00;12.20;;;;;;;10.37;50.69;102610.64;1413557;100;21699;-57
2021/11/17 12:07:21;;;;;;;19.35;10.75;;;;;;;10.38;50.66;102614.13;1417293;100;21699;-56
2021/11/17 12:10:07;;;;;;;14.87;7.80;;;;;;;10.38;50.70;102612.82;1422736;100;21121;-55
2021/11/17 12:12:38;;;;;;;14.30;8.65;;;;;;;10.39;50.62;102608.04;1420862;100;21213;-53
2021/11/17 12:15:34;;;;;;;13.22;7.47;;;;;;;10.42;50.59;102610.27;1434384;100;21172;-54
2021/11/17 12:18:13;;;;;;;12.93;7.47;;;;;;;10.44;50.49;102602.46;1366695;104;21740;-57
2021/11/17 12:21:01;;;;;;;11.10;7.50;;;;;;;10.42;50.66;102597.67;1366458;104;21145;-54
2021/11/17 12:23:35;;;;;;;10.65;6.45;;;;;;;10.39;50.70;102595.03;1367720;103;21216;-57
2021/11/17 12:26:20;;;;;;;9.03;7.05;;;;;;;10.35;50.34;102594.56;1386635;103;21643;-54
2021/11/17 12:29:08;;;;;;;9.30;6.80;;;;;;;10.32;50.36;102599.76;1418429;97;21123;-59
2021/11/17 12:31:58;;;;;;;7.90;6.40;;;;;;;10.32;50.54;102597.16;1457997;97;21122;-55
2021/11/17 12:34:31;;;;;;;9.75;6.83;;;;;;;10.30;50.48;102593.67;1490297;96;21177;-54
2021/11/17 12:37:03;;;;;;;;;;;;;;;10.27;50.27;102596.23;1490497;94;21113;-54
2021/11/17 12:39:34;;;;;;;7.83;6.20;;;;;;;10.24;50.54;102595.77;1488046;96;20160;-57
2021/11/17 12:42:05;;;;;;;12.13;7.63;;;;;;;10.21;50.77;102596.18;1491506;93;21078;-52
2021/11/17 12:44:36;;;;;;;10.40;6.85;;;;;;;10.18;50.83;102596.17;1544770;92;21046;-56
2021/11/17 12:47:21;;;;;;;11.45;8.05;;;;;;;10.15;50.78;102588.33;1528562;92;21077;-53
2021/11/17 12:49:59;;;;;;;14.47;8.40;;;;;;;10.10;50.98;102583.49;1537681;92;21614;-56
2021/11/17 12:52:37;;;;;;;13.22;9.43;;;;;;;10.10;50.97;102584.80;1493113;94;21170;-54
2021/11/17 12:55:17;;;;;;;15.28;9.68;;;;;;;10.09;51.10;102579.13;1421011;99;21115;-56
2021/11/17 12:58:09;;;;;;;13.30;9.45;;;;;;;10.10;51.11;102582.20;1423832;99;21170;-55
2021/11/17 13:00:42;;;;;;;;;;;;;;;10.09;51.15;102586.94;1466509;96;21121;-55
2021/11/17 13:03:11;;;;;;;12.13;8.20;;;;;;;10.10;50.91;102580.89;1466906;96;20140;-57
2021/11/17 13:05:41;;;;;;;13.25;9.50;;;;;;;10.08;51.03;102578.25;1485723;95;21601;-57
2021/11/17 13:08:15;;;;;;;16.37;8.65;;;;;;;10.07;51.11;102579.13;1485524;95;21102;-58
2021/11/17 13:10:51;;;;;;;10.75;7.55;;;;;;;10.05;51.12;102571.74;1485688;95;21616;-54
2021/11/17 13:13:44;;;;;;;10.72;7.42;;;;;;;10.05;51.01;102568.26;1460308;95;21161;-57
2021/11/17 13:16:15;;;;;;;11.65;8.03;;;;;;;10.06;50.90;102568.69;1435104;99;21568;-57
2021/11/17 13:18:48;;;;;;;14.58;9.40;;;;;;;10.06;51.03;102569.98;1452914;99;21124;-56
2021/11/17 13:21:32;;;;;;;15.50;9.63;;;;;;;10.05;51.00;102568.26;1452865;97;21063;-56
2021/11/17 13:24:10;;;;;;;12.80;8.68;;;;;;;10.03;50.92;102566.08;1389642;102;21146;-57
2021/11/17 13:26:51;;;;;;;14.73;9.75;;;;;;;10.01;50.90;102571.69;1411436;100;21151;-58
2021/11/17 13:29:32;;;;;;;10.30;7.03;;;;;;;9.96;50.91;102578.56;1408322;100;21673;-58
2021/11/17 13:32:15;;;;;;;16.02;7.58;;;;;;;9.93;50.72;102574.23;1396148;101;21655;-56
2021/11/17 13:34:48;;;;;;;10.13;7.00;;;;;;;9.90;50.97;102574.60;1396698;101;21573;-57
2021/11/17 13:37:40;;;;;;;10.40;6.92;;;;;;;9.88;51.10;102578.50;1380181;103;21176;-55
2021/11/17 13:40:11;;;;;;;8.28;5.95;;;;;;;9.91;51.12;102577.66;1405116;101;21188;-59
2021/11/17 13:42:40;;;;;;;13.70;9.43;;;;;;;9.93;51.18;102575.95;1380097;103;21195;-55
2021/11/17 13:45:19;;;;;;;12.43;9.25;;;;;;;9.94;51.09;102578.98;1388271;102;21190;-55
2021/11/17 13:47:45;;;;;;;13.65;8.50;;;;;;;9.94;51.15;102577.67;1380622;103;21141;-55
2021/11/17 13:50:13;;;;;;;11.28;7.80;;;;;;;9.96;51.12;102579.86;1379168;103;21193;-55
2021/11/17 13:52:42;;;;;;;17.52;12.00;;;;;;;9.97;51.08;102581.63;1483720;95;21077;-55
2021/11/17 13:55:14;;;;;;;13.85;9.05;;;;;;;9.99;51.08;102579.91;1482924;95;21060;-52
2021/11/17 13:57:42;;;;;;;17.48;11.25;;;;;;;9.98;51.00;102584.65;1483009;96;21516;-53
2021/11/17 14:00:09;;;;;;;16.67;11.08;;;;;;;9.98;50.96;102585.53;1484472;95;21149;-56
2021/11/17 14:02:40;;;;;;;17.00;11.45;;;;;;;9.97;50.87;102580.33;1484750;96;21119;-55
2021/11/17 14:05:07;;;;;;;21.25;12.05;;;;;;;9.98;51.02;102582.05;1483708;95;21098;-52
2021/11/17 14:07:35;;;;;;;21.40;11.75;;;;;;;9.98;51.10;102584.65;1482802;96;21170;-58
2021/11/17 14:10:04;;;;;;;23.42;15.85;;;;;;;9.99;51.10;102588.59;1483475;96;21107;-59
2021/11/17 14:12:30;;;;;;;14.45;11.28;;;;;;;10.05;51.02;102583.86;1481432;96;21566;-52
2021/11/17 14:14:56;;;;;;;16.82;10.82;;;;;;;10.06;50.94;102572.59;1494593;93;21568;-55
2021/11/17 14:17:23;;;;;;;18.90;11.05;;;;;;;10.08;50.70;102568.27;1503969;94;21129;-57
2021/11/17 14:19:50;;;;;;;17.87;9.75;;;;;;;10.06;50.66;102565.66;1556074;89;21108;-56
2021/11/17 14:22:17;;;;;;;17.80;11.45;;;;;;;10.06;50.76;102563.48;1611241;88;21063;-62
2021/11/17 14:24:44;;;;;;;14.30;10.75;;;;;;;10.08;50.80;102563.95;1609075;87;21111;-56
2021/11/17 14:27:13;;;;;;;15.90;10.15;;;;;;;10.07;50.67;102562.64;1625271;85;22432;-58
2021/11/17 14:29:53;;;;;;;13.38;9.03;;;;;;;10.07;50.76;102566.55;1666925;85;21148;-56
2021/11/17 14:32:26;;;;;;;19.27;10.55;;;;;;;10.06;50.76;102566.09;1722403;82;21139;-56
2021/11/17 14:34:52;;;;;;;14.23;10.38;;;;;;;10.06;50.71;102560.46;1731971;81;21558;-56
2021/11/17 14:37:19;;;;;;;18.73;11.35;;;;;;;10.09;50.72;102562.23;1734576;82;21015;-57
2021/11/17 14:39:45;;;;;;;16.80;11.30;;;;;;;10.07;50.78;102561.34;1735142;82;20987;-56